Time;durP1;ratioP1;P1;durP2;ratioP2;P2;SDS_P1;SDS_P2;PMS_P1;PMS_P2;Temp;Humidity;BMP_temperature;BMP_pressure;BME280_temperature;BME280_humidity;BME280_pressure;Samples;Min_cycle;Max_cycle;Signal;HPM_P1;HPM_P2
2023/07/06 00:00:54;;;;;;;2.30;2.30;;;;;;;21.09;94.30;96736.81;4983233;28;20402;-72
2023/07/06 00:03:23;;;;;;;2.00;2.00;;;;;;;21.21;93.85;96742.47;4984411;28;20640;-72
2023/07/06 00:05:50;;;;;;;2.05;2.05;;;;;;;21.02;92.78;96695.56;4984332;28;20509;-71
2023/07/06 00:08:17;;;;;;;2.55;2.45;;;;;;;21.17;93.07;96730.50;4982620;28;20053;-72
2023/07/06 00:10:46;;;;;;;2.22;2.22;;;;;;;21.13;93.54;96712.94;4984400;28;20065;-71
2023/07/06 00:13:13;;;;;;;2.30;2.30;;;;;;;20.90;93.00;96677.34;4984530;28;20128;-70
2023/07/06 00:15:42;;;;;;;1.95;1.95;;;;;;;21.18;92.56;96737.75;4984195;28;20227;-72
2023/07/06 00:18:10;;;;;;;2.10;2.10;;;;;;;20.95;94.68;96718.25;4983994;28;20505;-71
2023/07/06 00:20:38;;;;;;;1.85;1.85;;;;;;;20.76;95.38;96719.19;4984067;28;20061;-71
2023/07/06 00:23:06;;;;;;;1.98;1.98;;;;;;;20.14;99.08;96731.72;4984000;28;20481;-70
2023/07/06 00:25:35;;;;;;;2.00;2.00;;;;;;;19.95;98.42;96662.28;4987065;28;20050;-70
2023/07/06 00:28:03;;;;;;;2.10;2.10;;;;;;;20.45;95.77;96732.13;4988120;28;20237;-70
2023/07/06 00:33:15;;;;;;;2.10;2.10;;;;;;;20.34;94.88;96695.03;4988378;28;20057;-70
2023/07/06 00:35:42;;;;;;;2.58;2.47;;;;;;;20.24;94.10;96712.97;4987698;28;20058;-70
2023/07/06 00:38:12;;;;;;;1.70;1.70;;;;;;;19.82;97.39;96695.16;4987807;28;20489;-71
2023/07/06 00:40:41;;;;;;;1.85;1.85;;;;;;;20.23;97.03;96706.56;4987366;28;20046;-70
2023/07/06 00:43:15;;;;;;;2.05;2.05;;;;;;;20.21;96.87;96708.25;4986399;28;20134;-70
2023/07/06 00:45:44;;;;;;;1.95;1.95;;;;;;;19.78;95.65;96645.84;4988199;28;20412;-70
2023/07/06 00:48:32;;;;;;;2.20;2.20;;;;;;;20.32;95.33;96715.19;4987763;28;20133;-71
2023/07/06 00:51:16;;;;;;;2.00;2.00;;;;;;;20.35;95.93;96716.31;4988036;28;20105;-70
2023/07/06 00:53:48;;;;;;;2.22;2.22;;;;;;;20.19;95.26;96682.56;4987459;28;20549;-71
2023/07/06 00:56:20;;;;;;;1.83;1.83;;;;;;;20.42;94.41;96724.56;4986025;28;20713;-70
2023/07/06 00:58:48;;;;;;;2.28;2.28;;;;;;;19.81;93.75;96616.88;4987576;28;20050;-71
2023/07/06 01:01:21;;;;;;;2.30;2.30;;;;;;;20.27;92.66;96695.22;4987139;28;20128;-70
2023/07/06 01:03:55;;;;;;;2.17;2.17;;;;;;;19.88;97.75;96699.03;4987221;28;20101;-71
2023/07/06 01:06:25;;;;;;;2.20;2.20;;;;;;;20.16;96.87;96694.72;4987725;28;20085;-71
2023/07/06 01:08:53;;;;;;;2.00;2.00;;;;;;;20.12;95.84;96699.63;4987375;28;20080;-71
2023/07/06 01:11:20;;;;;;;1.88;1.88;;;;;;;19.92;95.96;96659.56;4985841;28;20485;-70
2023/07/06 01:13:49;;;;;;;1.92;1.92;;;;;;;19.99;96.65;96684.69;4987315;28;20058;-71
2023/07/06 01:16:22;;;;;;;1.92;1.92;;;;;;;20.10;98.72;96702.88;4985414;28;20054;-72
2023/07/06 01:19:02;;;;;;;2.15;2.15;;;;;;;20.26;97.26;96697.25;4986809;28;20054;-71
2023/07/06 01:21:48;;;;;;;2.00;2.00;;;;;;;19.88;100.00;96713.06;4987559;28;20124;-70
2023/07/06 01:24:31;;;;;;;1.90;1.90;;;;;;;20.01;99.69;96685.03;4987232;28;20056;-71
2023/07/06 01:27:10;;;;;;;;;;;;;;;20.23;98.10;96708.59;4987352;28;20046;-70
2023/07/06 01:30:13;;;;;;;2.00;2.00;;;;;;;20.08;99.00;96715.78;4985402;28;20024;-70
2023/07/06 01:32:49;;;;;;;2.15;2.15;;;;;;;20.04;99.49;96720.72;4987734;28;20114;-70
2023/07/06 01:35:25;;;;;;;1.92;1.92;;;;;;;19.90;97.19;96704.19;4985463;28;20058;-70
2023/07/06 01:37:52;;;;;;;2.10;2.10;;;;;;;19.85;97.23;96696.28;4987200;28;20054;-71
2023/07/06 01:40:19;;;;;;;1.90;1.90;;;;;;;19.97;96.02;96727.31;4986705;28;20054;-70
2023/07/06 01:42:45;;;;;;;1.90;1.90;;;;;;;19.74;96.97;96723.88;4985151;28;20436;-70
2023/07/06 01:45:18;;;;;;;1.92;1.92;;;;;;;19.31;100.00;96708.00;4986567;28;20054;-70
2023/07/06 01:47:50;;;;;;;1.90;1.90;;;;;;;19.46;100.00;96695.22;4986728;28;20137;-70
2023/07/06 01:50:23;;;;;;;2.05;2.05;;;;;;;19.58;100.00;96717.00;4986286;28;20065;-70
2023/07/06 01:53:17;;;;;;;1.88;1.88;;;;;;;18.75;100.00;96678.31;4986609;28;20058;-70
2023/07/06 01:56:18;;;;;;;2.00;2.00;;;;;;;19.36;100.00;96721.50;4986502;28;20068;-70
2023/07/06 01:59:01;;;;;;;1.80;1.80;;;;;;;19.25;100.00;96690.03;4985176;28;20046;-70
2023/07/06 02:01:31;;;;;;;;;;;;;;;19.57;100.00;96723.03;4986790;28;20085;-70
2023/07/06 02:04:00;;;;;;;1.85;1.85;;;;;;;19.44;100.00;96722.94;4986527;28;19929;-71
2023/07/06 02:06:27;;;;;;;1.80;1.80;;;;;;;18.79;100.00;96698.69;4984960;28;20523;-71
2023/07/06 02:08:54;;;;;;;1.92;1.92;;;;;;;18.99;100.00;96679.81;4986330;28;20129;-71
2023/07/06 02:11:24;;;;;;;1.88;1.88;;;;;;;18.64;100.00;96697.38;4986308;28;20475;-70
2023/07/06 02:13:52;;;;;;;1.80;1.80;;;;;;;18.61;100.00;96731.91;4986471;28;20062;-70
2023/07/06 02:16:18;;;;;;;1.70;1.70;;;;;;;16.73;100.00;96367.22;4986278;28;20053;-70
2023/07/06 02:18:45;;;;;;;1.90;1.90;;;;;;;18.98;100.00;96692.28;4986163;28;20501;-71
2023/07/06 02:21:13;;;;;;;1.80;1.80;;;;;;;19.14;100.00;96703.53;4986366;28;20065;-70
2023/07/06 02:23:40;;;;;;;1.80;1.80;;;;;;;19.38;100.00;96726.69;4985832;28;20050;-71
2023/07/06 02:26:07;;;;;;;1.77;1.77;;;;;;;19.37;100.00;96734.34;4971531;28;20058;-71
2023/07/06 02:28:34;;;;;;;1.95;1.95;;;;;;;19.21;100.00;96709.00;4966531;28;20051;-70
2023/07/06 02:31:04;;;;;;;1.90;1.90;;;;;;;19.22;100.00;96704.94;4966307;28;20059;-70
2023/07/06 02:33:34;;;;;;;1.80;1.80;;;;;;;19.49;100.00;96725.22;4966172;28;20085;-71
2023/07/06 02:36:01;;;;;;;2.00;2.00;;;;;;;19.27;100.00;96721.28;4964485;28;20501;-70
2023/07/06 02:38:29;;;;;;;1.73;1.73;;;;;;;19.50;100.00;96735.25;4966276;28;20054;-71
2023/07/06 02:40:57;;;;;;;2.25;2.25;;;;;;;19.42;100.00;96702.94;4966360;28;20055;-70
2023/07/06 02:43:27;;;;;;;1.88;1.88;;;;;;;19.03;100.00;96658.03;4965952;28;20047;-71
2023/07/06 02:45:54;;;;;;;2.28;2.28;;;;;;;19.03;100.00;96674.88;4966224;28;20149;-70
2023/07/06 02:48:21;;;;;;;1.88;1.88;;;;;;;19.32;100.00;96709.59;4964743;28;20065;-69
2023/07/06 02:50:49;;;;;;;1.77;1.77;;;;;;;18.37;100.00;96713.50;4965515;28;20329;-70
2023/07/06 02:53:17;;;;;;;1.90;1.90;;;;;;;18.54;100.00;96715.19;4965879;28;20059;-71
2023/07/06 02:55:48;;;;;;;2.08;2.08;;;;;;;18.95;100.00;96712.75;4964187;28;20055;-69
2023/07/06 02:58:16;;;;;;;2.10;2.10;;;;;;;18.80;100.00;96705.88;4967464;28;20086;-70
2023/07/06 03:00:42;;;;;;;1.83;1.83;;;;;;;19.03;100.00;96721.84;4977292;28;20341;-70
2023/07/06 03:03:09;;;;;;;1.90;1.90;;;;;;;19.05;100.00;96694.91;4979774;28;20073;-71
2023/07/06 03:05:36;;;;;;;1.92;1.92;;;;;;;18.88;100.00;96661.59;4965167;28;20088;-70
2023/07/06 03:08:05;;;;;;;1.90;1.90;;;;;;;18.98;100.00;96671.81;4965640;28;20043;-71
2023/07/06 03:10:32;;;;;;;2.03;2.03;;;;;;;19.34;100.00;96721.19;4965174;28;20058;-71
2023/07/06 03:12:59;;;;;;;1.70;1.70;;;;;;;19.47;100.00;96715.66;4965584;28;20112;-69
2023/07/06 03:15:28;;;;;;;1.73;1.73;;;;;;;19.44;100.00;96697.66;4964290;28;20050;-72
2023/07/06 03:17:55;;;;;;;1.80;1.80;;;;;;;19.30;100.00;96655.84;4964034;28;20130;-71
2023/07/06 03:20:22;;;;;;;1.98;1.98;;;;;;;19.57;99.62;96691.38;4965337;28;20051;-69
2023/07/06 03:22:52;;;;;;;2.10;2.10;;;;;;;19.73;99.56;96708.25;4965628;28;20051;-71
2023/07/06 03:25:24;;;;;;;2.05;2.05;;;;;;;19.86;99.15;96697.88;4965481;28;20125;-71
2023/07/06 03:27:51;;;;;;;2.00;2.00;;;;;;;19.75;97.09;96663.59;4965298;28;20058;-72
2023/07/06 03:30:21;;;;;;;2.20;2.20;;;;;;;19.90;96.37;96673.28;4963839;28;20082;-70
2023/07/06 03:32:48;;;;;;;1.90;1.90;;;;;;;20.01;96.28;96679.41;4963464;28;20059;-71
2023/07/06 03:35:16;;;;;;;2.00;2.00;;;;;;;19.57;95.54;96607.06;4963370;28;20057;-71
2023/07/06 03:37:43;;;;;;;1.92;1.92;;;;;;;20.02;94.98;96686.63;4965062;28;20066;-69
2023/07/06 03:40:11;;;;;;;2.13;2.13;;;;;;;19.85;95.37;96662.56;4965075;28;20615;-70
2023/07/06 03:42:45;;;;;;;1.90;1.90;;;;;;;20.08;95.95;96698.91;4963555;28;20502;-70
2023/07/06 03:45:13;;;;;;;1.77;1.77;;;;;;;20.19;95.77;96699.44;4963413;28;20457;-70
2023/07/06 03:47:42;;;;;;;1.95;1.95;;;;;;;20.20;95.27;96678.53;4964685;28;20134;-69
2023/07/06 03:50:12;;;;;;;1.98;1.98;;;;;;;20.27;93.58;96669.91;4964535;28;20523;-71
2023/07/06 03:52:39;;;;;;;2.15;2.15;;;;;;;20.52;93.61;96700.97;4963584;28;20560;-70
2023/07/06 03:55:18;;;;;;;2.10;2.10;;;;;;;20.40;92.79;96665.94;4964429;28;20054;-70
2023/07/06 03:57:45;;;;;;;2.00;2.00;;;;;;;20.57;92.21;96652.59;4963801;28;20062;-71
2023/07/06 04:00:30;;;;;;;2.20;2.20;;;;;;;20.99;91.96;96702.09;4972415;28;20060;-71
2023/07/06 04:03:00;;;;;;;1.90;1.90;;;;;;;21.12;91.79;96705.69;4984513;28;20051;-71
2023/07/06 04:05:32;;;;;;;1.98;1.98;;;;;;;21.20;91.17;96695.81;4982922;28;20058;-71
2023/07/06 04:08:03;;;;;;;2.03;2.03;;;;;;;21.00;88.91;96641.69;4983975;28;20092;-70
2023/07/06 04:10:32;;;;;;;2.22;2.22;;;;;;;21.59;87.99;96709.47;4982466;28;20061;-71
2023/07/06 04:12:59;;;;;;;2.13;2.13;;;;;;;21.20;87.03;96622.56;4984656;28;20053;-70
2023/07/06 04:15:26;;;;;;;2.10;2.10;;;;;;;21.58;87.81;96671.25;4984793;28;20051;-71
2023/07/06 04:17:53;;;;;;;2.20;2.20;;;;;;;21.69;87.52;96671.69;4985103;28;20130;-72
2023/07/06 04:20:31;;;;;;;2.00;2.00;;;;;;;22.00;86.49;96719.88;4984415;28;20564;-70
2023/07/06 04:22:58;;;;;;;2.30;2.30;;;;;;;21.83;85.90;96665.63;4983080;28;20050;-71
2023/07/06 04:25:29;;;;;;;2.22;2.22;;;;;;;22.34;85.35;96723.53;4982407;28;20565;-71
2023/07/06 04:28:05;;;;;;;2.35;2.30;;;;;;;22.44;84.34;96716.75;4984138;28;20050;-70
2023/07/06 04:30:37;;;;;;;2.40;2.35;;;;;;;22.59;82.66;96716.28;4982532;28;20680;-72
2023/07/06 04:33:06;;;;;;;2.75;2.65;;;;;;;22.71;81.95;96719.06;4984406;28;20054;-71
2023/07/06 04:35:33;;;;;;;2.42;2.33;;;;;;;22.02;84.76;96701.25;4982143;28;20250;-70
2023/07/06 04:38:03;;;;;;;2.03;2.03;;;;;;;21.98;87.50;96728.81;4982946;28;20054;-71
2023/07/06 04:40:30;;;;;;;2.22;2.22;;;;;;;21.51;88.49;96643.31;4981975;28;20073;-71
2023/07/06 04:42:56;;;;;;;2.28;2.28;;;;;;;21.97;86.82;96699.00;4983917;28;20053;-71
2023/07/06 04:45:25;;;;;;;2.20;2.20;;;;;;;22.26;85.29;96699.63;4982570;28;20054;-71
2023/07/06 04:48:00;;;;;;;2.67;2.58;;;;;;;22.12;84.44;96660.63;4982601;28;20058;-72
2023/07/06 04:50:27;;;;;;;2.40;2.35;;;;;;;22.51;83.82;96703.63;4984161;28;20478;-70
2023/07/06 04:52:57;;;;;;;2.60;2.50;;;;;;;22.84;83.95;96735.94;4982603;28;20054;-71
2023/07/06 04:55:26;;;;;;;2.60;2.50;;;;;;;22.76;82.95;96709.19;4984111;28;20335;-71
2023/07/06 04:57:55;;;;;;;2.70;2.60;;;;;;;22.79;82.99;96716.75;4982408;28;20057;-71
2023/07/06 05:00:25;;;;;;;2.50;2.45;;;;;;;23.00;82.56;96727.28;4983510;28;20093;-71
2023/07/06 05:03:00;;;;;;;2.53;2.42;;;;;;;23.30;82.07;96726.59;4983849;28;20545;-71
2023/07/06 05:05:31;;;;;;;2.70;2.60;;;;;;;23.43;80.37;96724.44;4983595;28;20057;-71
2023/07/06 05:07:59;;;;;;;2.95;2.85;;;;;;;23.25;79.19;96679.09;4982307;28;20469;-71
2023/07/06 05:10:26;;;;;;;2.70;2.60;;;;;;;23.47;79.01;96696.84;4983677;28;20544;-71
2023/07/06 05:12:55;;;;;;;2.90;2.80;;;;;;;23.60;80.14;96700.38;4986972;28;20085;-72
2023/07/06 05:15:23;;;;;;;2.90;2.80;;;;;;;24.08;79.61;96741.28;4985581;28;20116;-72
2023/07/06 05:17:50;;;;;;;2.80;2.70;;;;;;;23.58;77.71;96658.38;4985725;28;20050;-71
2023/07/06 05:20:18;;;;;;;3.03;2.92;;;;;;;23.17;76.60;96548.59;4988923;28;20049;-72
2023/07/06 05:22:47;;;;;;;3.35;3.25;;;;;;;23.99;75.80;96671.31;5006725;28;20045;-70
2023/07/06 05:25:18;;;;;;;3.00;2.90;;;;;;;24.58;75.64;96735.91;5006280;28;20504;-70
2023/07/06 05:27:45;;;;;;;3.00;2.90;;;;;;;24.47;74.50;96712.13;5005208;28;20185;-71
2023/07/06 05:30:12;;;;;;;2.95;2.85;;;;;;;24.36;74.15;96684.25;5004646;28;20501;-72
2023/07/06 05:32:39;;;;;;;3.10;3.00;;;;;;;24.32;74.42;96706.28;5005111;28;20045;-72
2023/07/06 05:35:08;;;;;;;3.20;3.10;;;;;;;24.44;74.25;96708.19;5004739;28;20050;-68
2023/07/06 05:37:35;;;;;;;3.03;2.92;;;;;;;23.61;73.16;96543.56;5006047;28;20065;-75
2023/07/06 05:40:06;;;;;;;3.20;3.10;;;;;;;24.60;72.56;96681.59;5006121;28;20054;-71
2023/07/06 05:42:33;;;;;;;3.13;3.03;;;;;;;23.64;72.44;96532.09;5003264;28;20045;-71
2023/07/06 05:45:00;;;;;;;3.47;3.38;;;;;;;25.38;71.41;96752.66;5004785;28;20509;-68
2023/07/06 05:47:27;;;;;;;3.05;2.95;;;;;;;25.32;69.96;96747.56;5004924;28;20053;-64
2023/07/06 05:49:54;;;;;;;3.45;3.35;;;;;;;24.99;70.81;96700.53;5005071;28;20101;-70
2023/07/06 05:52:21;;;;;;;3.05;2.95;;;;;;;25.39;71.95;96754.25;4984356;28;20065;-68
2023/07/06 05:54:48;;;;;;;3.10;3.00;;;;;;;25.54;69.78;96709.75;4956649;28;20054;-63
2023/07/06 05:57:17;;;;;;;3.20;3.10;;;;;;;25.42;68.39;96656.84;4947811;29;20054;-66
2023/07/06 05:59:45;;;;;;;3.38;3.28;;;;;;;25.57;69.62;96708.78;4947659;29;20138;-65
2023/07/06 06:02:16;;;;;;;3.50;3.40;;;;;;;25.86;68.90;96726.06;4962830;28;20066;-65
2023/07/06 06:04:43;;;;;;;3.88;3.78;;;;;;;26.19;67.98;96738.22;4966653;28;20050;-69
2023/07/06 06:07:10;;;;;;;3.60;3.50;;;;;;;26.18;66.87;96694.03;4966707;28;20056;-68
2023/07/06 06:09:36;;;;;;;3.38;3.28;;;;;;;26.58;65.08;96712.28;4966116;28;20540;-66
2023/07/06 06:12:04;;;;;;;3.70;3.60;;;;;;;26.34;64.80;96687.97;4966450;28;20138;-69
2023/07/06 06:14:34;;;;;;;3.75;3.65;;;;;;;26.94;64.96;96742.50;4964825;28;20253;-65
2023/07/06 06:17:01;;;;;;;3.65;3.55;;;;;;;26.73;64.32;96675.38;4965343;28;20061;-73
2023/07/06 06:19:27;;;;;;;3.55;3.45;;;;;;;26.91;63.09;96715.03;4964986;28;20086;-62
2023/07/06 06:21:54;;;;;;;3.83;3.72;;;;;;;27.22;63.62;96723.94;4965403;28;20050;-66
2023/07/06 06:24:22;;;;;;;4.07;3.97;;;;;;;27.21;62.86;96693.91;4965069;28;20165;-63
2023/07/06 06:26:49;;;;;;;3.80;3.70;;;;;;;27.82;60.01;96724.28;4965391;28;20058;-64
2023/07/06 06:29:17;;;;;;;4.05;3.95;;;;;;;27.27;60.37;96629.41;4966161;28;20050;-70
2023/07/06 06:31:44;;;;;;;3.83;3.72;;;;;;;27.60;60.10;96669.81;4966497;28;20050;-66
2023/07/06 06:34:11;;;;;;;4.13;4.03;;;;;;;28.06;59.99;96724.97;4966164;28;20051;-68
2023/07/06 06:36:38;;;;;;;3.88;3.78;;;;;;;27.75;61.58;96687.69;4965468;28;20063;-67
2023/07/06 06:39:06;;;;;;;4.05;3.95;;;;;;;27.55;59.78;96638.44;4964900;28;20058;-70
2023/07/06 06:41:33;;;;;;;3.80;3.70;;;;;;;27.77;59.98;96676.56;4964406;28;20062;-68
2023/07/06 06:44:00;;;;;;;4.38;4.28;;;;;;;28.00;59.09;96660.66;4964630;28;20077;-63
2023/07/06 06:46:27;;;;;;;3.90;3.80;;;;;;;28.34;58.25;96696.13;4964741;28;20140;-65
2023/07/06 06:48:54;;;;;;;3.97;3.88;;;;;;;28.23;56.93;96681.72;4965616;28;20046;-64
2023/07/06 06:51:21;;;;;;;4.25;4.15;;;;;;;28.62;56.85;96725.81;4965076;28;20062;-63
2023/07/06 06:53:48;;;;;;;4.18;4.07;;;;;;;28.18;57.17;96640.47;4964945;28;20138;-66
2023/07/06 06:56:14;;;;;;;3.95;3.85;;;;;;;28.53;56.28;96697.44;4964271;28;20062;-66
2023/07/06 06:58:41;;;;;;;3.72;3.63;;;;;;;28.84;57.67;96709.00;4965231;28;20129;-63
2023/07/06 07:01:10;;;;;;;3.88;3.78;;;;;;;28.65;56.02;96713.41;4965670;28;20054;-70
2023/07/06 07:03:37;;;;;;;4.53;4.43;;;;;;;28.66;54.25;96709.28;4965417;28;20063;-63
2023/07/06 07:06:13;;;;;;;4.05;3.95;;;;;;;28.81;54.78;96715.69;4965780;28;20109;-64
2023/07/06 07:08:45;;;;;;;3.92;3.83;;;;;;;28.98;54.41;96710.97;4966043;28;20046;-64
2023/07/06 07:11:12;;;;;;;4.20;4.10;;;;;;;28.23;55.54;96650.38;4964683;28;20054;-69
2023/07/06 07:13:50;;;;;;;4.38;4.28;;;;;;;27.00;55.34;96496.00;4965377;28;20439;-62
2023/07/06 07:16:19;;;;;;;4.28;4.18;;;;;;;28.28;54.53;96649.66;4965618;28;20225;-70
2023/07/06 07:18:46;;;;;;;4.07;3.97;;;;;;;28.74;53.99;96716.16;4964012;28;20046;-63
2023/07/06 07:21:14;;;;;;;4.03;3.92;;;;;;;28.77;54.39;96698.03;4965208;28;20059;-62
2023/07/06 07:23:48;;;;;;;4.30;4.20;;;;;;;29.26;53.00;96720.69;4965482;28;20054;-64
2023/07/06 07:26:18;;;;;;;4.25;4.15;;;;;;;28.82;53.30;96660.22;4963481;28;20138;-63
2023/07/06 07:28:48;;;;;;;3.85;3.75;;;;;;;29.02;53.26;96663.06;4963681;28;20078;-69
2023/07/06 07:31:17;;;;;;;4.30;4.20;;;;;;;29.45;52.83;96713.34;4965245;28;20062;-69
2023/07/06 07:33:49;;;;;;;4.20;4.10;;;;;;;28.98;52.50;96656.78;4964551;28;20423;-62
2023/07/06 07:36:18;;;;;;;4.40;4.30;;;;;;;29.11;51.99;96666.56;4965002;28;20453;-65
2023/07/06 07:38:46;;;;;;;4.30;4.20;;;;;;;29.17;51.88;96726.53;4964907;28;20521;-63
2023/07/06 07:41:16;;;;;;;4.13;4.03;;;;;;;28.90;51.79;96693.53;4963731;28;20089;-68
2023/07/06 07:43:43;;;;;;;4.00;3.90;;;;;;;29.15;51.15;96718.47;4965850;28;20113;-69
2023/07/06 07:46:11;;;;;;;4.10;4.00;;;;;;;29.34;51.24;96710.38;4965468;28;20051;-68
2023/07/06 07:48:45;;;;;;;4.20;4.10;;;;;;;29.44;50.76;96711.78;4965381;28;20050;-63
2023/07/06 07:51:14;;;;;;;3.92;3.83;;;;;;;29.08;52.13;96689.63;4965106;28;20055;-64
2023/07/06 07:53:44;;;;;;;3.88;3.78;;;;;;;29.42;50.69;96698.03;4965008;28;20055;-63
2023/07/06 07:56:15;;;;;;;4.32;4.22;;;;;;;29.30;50.11;96681.28;4960850;28;20057;-63
2023/07/06 07:58:47;;;;;;;4.15;4.05;;;;;;;28.92;50.53;96581.78;4969473;28;20092;-66
2023/07/06 08:01:20;;;;;;;4.45;4.35;;;;;;;30.12;49.45;96709.84;4984322;28;20046;-63
2023/07/06 08:03:48;;;;;;;4.35;4.25;;;;;;;29.58;49.35;96722.31;4983509;28;20054;-65
2023/07/06 08:06:18;;;;;;;4.60;4.50;;;;;;;29.76;48.74;96724.88;4982750;28;20061;-64
2023/07/06 08:08:45;;;;;;;4.45;4.35;;;;;;;28.98;50.71;96696.72;4981860;28;20333;-63
2023/07/06 08:11:14;;;;;;;4.40;4.30;;;;;;;29.59;49.62;96698.97;4979640;28;20129;-65
2023/07/06 08:13:44;;;;;;;4.30;4.20;;;;;;;29.03;49.88;96634.03;4984113;28;20082;-65
2023/07/06 08:16:12;;;;;;;4.18;4.07;;;;;;;30.01;49.95;96715.47;4982341;28;20124;-66
2023/07/06 08:18:41;;;;;;;4.18;4.07;;;;;;;30.18;49.62;96702.09;4975648;28;20139;-62
2023/07/06 08:21:10;;;;;;;4.20;4.10;;;;;;;30.68;47.46;96706.06;4963403;28;20055;-62
2023/07/06 08:23:59;;;;;;;4.10;4.00;;;;;;;30.68;47.94;96693.84;4970584;28;20148;-67
2023/07/06 08:26:29;;;;;;;4.13;4.03;;;;;;;30.79;47.47;96686.13;4982967;28;20061;-63
2023/07/06 08:28:55;;;;;;;4.40;4.30;;;;;;;30.00;48.65;96547.41;4981233;28;20552;-66
2023/07/06 08:31:24;;;;;;;4.65;4.55;;;;;;;30.57;47.12;96613.72;4981949;28;20058;-70
2023/07/06 08:33:51;;;;;;;4.25;4.15;;;;;;;31.26;47.38;96710.25;4980769;28;20776;-62
2023/07/06 08:36:20;;;;;;;4.68;4.57;;;;;;;31.13;46.44;96660.47;4980961;28;20050;-62
2023/07/06 08:38:47;;;;;;;4.55;4.45;;;;;;;31.05;46.68;96625.09;4981196;28;20564;-69
2023/07/06 08:41:29;;;;;;;4.85;4.75;;;;;;;31.54;46.33;96667.34;4982105;28;20042;-68
2023/07/06 08:44:00;;;;;;;4.18;4.07;;;;;;;31.81;46.01;96692.38;4977845;28;20089;-69
2023/07/06 08:46:32;;;;;;;4.82;4.72;;;;;;;31.86;45.26;96688.78;4965760;28;20046;-70
2023/07/06 08:49:00;;;;;;;4.43;4.32;;;;;;;31.30;46.62;96647.81;4964925;28;20609;-63
2023/07/06 08:51:35;;;;;;;4.38;4.28;;;;;;;31.11;46.85;96651.66;4964673;28;20065;-63
2023/07/06 08:54:17;;;;;;;4.57;4.47;;;;;;;31.74;46.02;96713.72;4966353;28;20050;-65
2023/07/06 08:56:47;;;;;;;4.50;4.40;;;;;;;31.22;45.34;96623.03;4966207;28;20070;-64
2023/07/06 08:59:40;;;;;;;4.43;4.32;;;;;;;31.34;45.54;96710.53;4965948;28;20059;-69
2023/07/06 09:02:27;;;;;;;4.53;4.43;;;;;;;31.72;45.93;96718.44;4970808;28;20516;-66
2023/07/06 09:04:59;;;;;;;4.57;4.47;;;;;;;32.17;45.48;96715.09;4967854;28;20109;-69
2023/07/06 09:07:38;;;;;;;4.75;4.65;;;;;;;30.13;47.21;96705.69;4966504;28;20438;-64
2023/07/06 09:10:17;;;;;;;4.57;4.47;;;;;;;30.85;47.78;96724.13;4967559;28;20055;-65
2023/07/06 09:12:53;;;;;;;4.35;4.25;;;;;;;31.05;46.42;96716.69;4980579;28;20051;-64
2023/07/06 09:15:30;;;;;;;4.35;4.25;;;;;;;30.36;47.01;96704.59;4984043;28;20050;-65
2023/07/06 09:18:03;;;;;;;4.30;4.20;;;;;;;31.12;47.78;96710.44;4984630;28;20065;-63
2023/07/06 09:20:32;;;;;;;4.68;4.57;;;;;;;30.84;46.54;96708.25;4986435;28;20050;-68
2023/07/06 09:23:01;;;;;;;4.70;4.60;;;;;;;31.09;45.76;96671.41;4986044;28;20085;-68
2023/07/06 09:25:36;;;;;;;4.68;4.57;;;;;;;30.02;46.52;96614.16;4985423;28;20062;-68
2023/07/06 09:28:07;;;;;;;4.63;4.53;;;;;;;30.43;47.35;96695.53;4986583;28;20646;-64
2023/07/06 09:30:37;;;;;;;4.35;4.25;;;;;;;30.74;46.28;96689.72;4982860;28;20046;-63
2023/07/06 09:33:17;;;;;;;4.63;4.53;;;;;;;30.81;45.95;96629.19;4980317;28;20126;-66
2023/07/06 09:35:43;;;;;;;4.30;4.20;;;;;;;30.95;46.60;96684.63;4982930;28;20099;-66
2023/07/06 09:38:14;;;;;;;4.53;4.43;;;;;;;31.48;44.60;96675.97;4983145;28;20537;-66
2023/07/06 09:40:43;;;;;;;4.38;4.28;;;;;;;31.01;47.31;96690.38;4979308;28;20057;-69
2023/07/06 09:43:17;;;;;;;4.50;4.40;;;;;;;31.73;44.29;96679.88;4980081;28;20406;-63
2023/07/06 09:45:44;;;;;;;4.43;4.32;;;;;;;31.77;43.93;96657.50;4966716;28;20090;-68
2023/07/06 09:48:37;;;;;;;4.63;4.53;;;;;;;32.41;43.48;96683.00;4981915;28;20058;-63
2023/07/06 09:51:13;;;;;;;4.43;4.32;;;;;;;32.63;42.45;96682.19;4968691;28;20082;-69
2023/07/06 09:54:15;;;;;;;4.80;4.70;;;;;;;32.78;42.20;96683.44;4967013;28;20047;-63
2023/07/06 09:56:43;;;;;;;4.47;4.38;;;;;;;31.28;42.58;96546.53;4964525;28;20581;-67
2023/07/06 09:59:11;;;;;;;4.75;4.65;;;;;;;32.42;43.73;96661.66;4984849;28;20488;-64
2023/07/06 10:02:15;;;;;;;5.00;4.90;;;;;;;32.61;42.69;96659.78;4982433;28;20054;-69
2023/07/06 10:05:01;;;;;;;4.95;4.85;;;;;;;31.18;44.25;96582.44;4975805;28;20153;-65
2023/07/06 10:07:32;;;;;;;4.32;4.22;;;;;;;32.42;42.67;96684.59;4979737;28;20077;-67
2023/07/06 10:10:36;;;;;;;4.63;4.53;;;;;;;32.88;41.84;96681.06;4986140;28;20061;-65
2023/07/06 10:13:15;;;;;;;4.85;4.75;;;;;;;32.65;41.30;96680.34;4986273;28;20277;-64
2023/07/06 10:15:57;;;;;;;4.55;4.45;;;;;;;31.29;43.30;96662.59;4985595;28;20560;-65
2023/07/06 10:18:30;;;;;;;4.63;4.53;;;;;;;31.04;44.46;96635.75;4985758;28;20054;-64
2023/07/06 10:21:04;;;;;;;4.28;4.18;;;;;;;30.76;45.48;96624.22;4983420;28;20058;-65
2023/07/06 10:23:38;;;;;;;4.80;4.70;;;;;;;31.07;44.84;96669.06;4984138;28;20058;-66
2023/07/06 10:26:17;;;;;;;4.13;4.03;;;;;;;31.28;45.60;96669.63;4980674;28;20141;-68
2023/07/06 10:29:16;;;;;;;4.13;4.03;;;;;;;30.56;45.86;96657.91;4986281;28;20054;-66
2023/07/06 10:31:51;;;;;;;4.38;4.28;;;;;;;30.42;46.26;96633.13;4983977;28;20070;-68
2023/07/06 10:34:21;;;;;;;4.32;4.22;;;;;;;30.77;46.33;96667.91;4982303;28;20524;-67
2023/07/06 10:36:49;;;;;;;4.35;4.25;;;;;;;31.19;44.75;96642.03;4981123;28;20137;-68
2023/07/06 10:39:25;;;;;;;4.43;4.32;;;;;;;31.96;44.51;96664.28;4983196;28;20050;-65
2023/07/06 10:42:04;;;;;;;4.80;4.70;;;;;;;31.88;43.24;96592.41;4981405;28;20622;-71
2023/07/06 10:44:46;;;;;;;4.80;4.70;;;;;;;32.64;43.43;96644.38;4983870;28;20058;-68
2023/07/06 10:47:28;;;;;;;4.63;4.53;;;;;;;33.20;42.79;96644.91;4985082;28;20120;-67
2023/07/06 10:50:06;;;;;;;4.90;4.80;;;;;;;33.68;42.12;96645.94;4985279;28;20580;-68
2023/07/06 10:52:40;;;;;;;4.78;4.68;;;;;;;33.73;41.54;96642.22;4979263;28;20065;-65
2023/07/06 10:55:24;;;;;;;4.80;4.70;;;;;;;33.28;41.15;96640.94;4972944;28;20073;-66
2023/07/06 10:57:53;;;;;;;4.78;4.68;;;;;;;32.81;41.62;96602.03;4984386;28;20521;-66
2023/07/06 11:00:33;;;;;;;4.97;4.88;;;;;;;33.60;40.96;96636.31;4985371;28;20526;-68
2023/07/06 11:03:01;;;;;;;5.05;4.95;;;;;;;34.00;40.48;96639.66;4981943;28;20046;-66
2023/07/06 11:05:32;;;;;;;4.43;4.32;;;;;;;32.17;42.54;96611.88;4984673;28;20050;-68
2023/07/06 11:08:11;;;;;;;4.95;4.85;;;;;;;32.96;42.86;96608.22;4984682;28;20057;-67
2023/07/06 11:10:47;;;;;;;4.65;4.55;;;;;;;33.39;41.06;96622.84;4973491;28;20532;-66
2023/07/06 11:13:17;;;;;;;4.80;4.70;;;;;;;33.33;41.63;96614.28;4976382;28;20057;-64
2023/07/06 11:15:44;;;;;;;4.40;4.30;;;;;;;33.09;42.71;96634.25;4982395;28;20092;-63
2023/07/06 11:18:37;;;;;;;4.53;4.43;;;;;;;33.64;42.31;96633.13;4971653;28;20572;-67
2023/07/06 11:21:22;;;;;;;5.07;4.97;;;;;;;34.22;41.50;96622.19;4980395;28;20058;-66
2023/07/06 11:24:02;;;;;;;4.78;4.68;;;;;;;33.89;40.40;96625.38;4983609;28;20065;-62
2023/07/06 11:26:35;;;;;;;4.88;4.78;;;;;;;33.78;40.25;96613.97;4981972;28;20054;-63
2023/07/06 11:29:04;;;;;;;5.15;5.05;;;;;;;33.30;40.73;96621.09;4980069;28;20070;-66
2023/07/06 11:31:49;;;;;;;4.95;4.85;;;;;;;32.93;41.40;96608.53;4978910;28;20057;-65
2023/07/06 11:34:29;;;;;;;4.90;4.80;;;;;;;33.27;41.35;96612.75;4964897;28;20090;-65
2023/07/06 11:37:12;;;;;;;4.88;4.78;;;;;;;34.10;40.55;96612.13;4963279;28;20065;-67
2023/07/06 11:40:19;;;;;;;4.90;4.80;;;;;;;34.56;39.36;96606.16;4965823;28;20062;-70
2023/07/06 11:42:53;;;;;;;5.00;4.90;;;;;;;35.14;39.76;96602.25;4977546;28;20078;-65
2023/07/06 11:45:31;;;;;;;5.35;5.25;;;;;;;35.16;39.49;96561.38;4975102;28;20053;-67
2023/07/06 11:48:05;;;;;;;5.40;5.30;;;;;;;35.00;39.85;96609.28;4975943;28;20057;-65
2023/07/06 11:50:38;;;;;;;5.18;5.07;;;;;;;35.23;38.59;96598.22;4981129;28;20047;-68
2023/07/06 11:53:29;;;;;;;5.65;5.45;;;;;;;35.23;38.67;96525.41;4975478;28;20046;-62
2023/07/06 11:56:08;;;;;;;5.93;5.72;;;;;;;34.47;38.97;96600.78;4983558;28;20529;-68